sensor_id;sensor_type;location;lat;lon;timestamp;pressure;altitude;pressure_sealevel;temperature;humidity
69214;BME280;56325;47.030;18.518;2022-09-03T00:00:35;100509.47;;;15.15;75.79
69214;BME280;56325;47.030;18.518;2022-09-03T00:03:15;100511.50;;;15.15;75.70
69214;BME280;56325;47.030;18.518;2022-09-03T00:06:00;100502.22;;;15.38;74.95
69214;BME280;56325;47.030;18.518;2022-09-03T00:08:44;100509.00;;;15.37;74.54
69214;BME280;56325;47.030;18.518;2022-09-03T00:11:23;100511.09;;;15.42;73.55
69214;BME280;56325;47.030;18.518;2022-09-03T00:14:02;100509.41;;;15.50;72.97
69214;BME280;56325;47.030;18.518;2022-09-03T00:16:43;100500.28;;;15.44;72.67
69214;BME280;56325;47.030;18.518;2022-09-03T00:19:22;100497.63;;;15.15;73.92
69214;BME280;56325;47.030;18.518;2022-09-03T00:22:07;100503.88;;;15.09;73.95
69214;BME280;56325;47.030;18.518;2022-09-03T00:24:43;100498.72;;;15.02;74.38
69214;BME280;56325;47.030;18.518;2022-09-03T00:27:22;100495.69;;;15.21;73.68
69214;BME280;56325;47.030;18.518;2022-09-03T00:30:00;100508.72;;;15.35;72.94
69214;BME280;56325;47.030;18.518;2022-09-03T00:32:40;100501.72;;;15.19;73.54
69214;BME280;56325;47.030;18.518;2022-09-03T00:35:21;100507.13;;;15.08;73.95
69214;BME280;56325;47.030;18.518;2022-09-03T00:37:57;100514.31;;;15.00;74.21
69214;BME280;56325;47.030;18.518;2022-09-03T00:40:47;100499.50;;;15.03;74.01
69214;BME280;56325;47.030;18.518;2022-09-03T00:43:39;100518.53;;;14.95;74.42
69214;BME280;56325;47.030;18.518;2022-09-03T00:46:22;100517.41;;;14.87;74.28
69214;BME280;56325;47.030;18.518;2022-09-03T00:52:14;100522.00;;;14.75;75.01
69214;BME280;56325;47.030;18.518;2022-09-03T00:55:02;100524.84;;;14.81;74.95
69214;BME280;56325;47.030;18.518;2022-09-03T00:57:51;100518.00;;;14.76;75.18
69214;BME280;56325;47.030;18.518;2022-09-03T01:00:29;100514.47;;;14.76;74.80
69214;BME280;56325;47.030;18.518;2022-09-03T01:03:06;100521.66;;;14.68;74.86
69214;BME280;56325;47.030;18.518;2022-09-03T01:05:52;100510.22;;;14.60;75.72
69214;BME280;56325;47.030;18.518;2022-09-03T01:08:56;100506.50;;;14.63;75.69
69214;BME280;56325;47.030;18.518;2022-09-03T01:11:43;100510.91;;;14.55;75.61
69214;BME280;56325;47.030;18.518;2022-09-03T01:14:31;100511.19;;;14.42;75.68
69214;BME280;56325;47.030;18.518;2022-09-03T01:17:12;100525.19;;;14.24;76.73
69214;BME280;56325;47.030;18.518;2022-09-03T01:20:02;100523.38;;;14.36;76.67
69214;BME280;56325;47.030;18.518;2022-09-03T01:25:53;100522.81;;;14.61;75.92
69214;BME280;56325;47.030;18.518;2022-09-03T01:28:46;100529.31;;;14.58;75.85
69214;BME280;56325;47.030;18.518;2022-09-03T01:31:30;100527.31;;;14.59;75.32
69214;BME280;56325;47.030;18.518;2022-09-03T01:34:12;100524.06;;;14.60;75.66
69214;BME280;56325;47.030;18.518;2022-09-03T01:36:57;100519.72;;;14.74;74.93
69214;BME280;56325;47.030;18.518;2022-09-03T01:39:45;100523.59;;;14.62;75.38
69214;BME280;56325;47.030;18.518;2022-09-03T01:42:27;100527.19;;;14.68;74.58
69214;BME280;56325;47.030;18.518;2022-09-03T01:48:09;100519.66;;;14.39;75.95
69214;BME280;56325;47.030;18.518;2022-09-03T01:50:52;100517.59;;;14.49;75.51
69214;BME280;56325;47.030;18.518;2022-09-03T01:53:44;100515.37;;;14.53;75.11
69214;BME280;56325;47.030;18.518;2022-09-03T01:56:30;100522.44;;;14.24;75.72
69214;BME280;56325;47.030;18.518;2022-09-03T01:59:08;100522.06;;;14.31;75.70
69214;BME280;56325;47.030;18.518;2022-09-03T02:01:51;100521.28;;;14.31;75.95
69214;BME280;56325;47.030;18.518;2022-09-03T02:04:26;100517.09;;;14.35;75.78
69214;BME280;56325;47.030;18.518;2022-09-03T02:07:02;100524.53;;;14.29;75.58
69214;BME280;56325;47.030;18.518;2022-09-03T02:09:37;100524.63;;;14.20;75.98
69214;BME280;56325;47.030;18.518;2022-09-03T02:12:15;100520.81;;;14.03;76.66
69214;BME280;56325;47.030;18.518;2022-09-03T02:14:51;100527.97;;;14.24;76.13
69214;BME280;56325;47.030;18.518;2022-09-03T02:17:27;100520.53;;;14.16;76.17
69214;BME280;56325;47.030;18.518;2022-09-03T02:20:04;100527.97;;;14.09;76.05
69214;BME280;56325;47.030;18.518;2022-09-03T02:22:41;100524.44;;;14.09;76.25
69214;BME280;56325;47.030;18.518;2022-09-03T02:25:16;100524.03;;;14.01;76.41
69214;BME280;56325;47.030;18.518;2022-09-03T02:27:51;100527.59;;;14.17;76.00
69214;BME280;56325;47.030;18.518;2022-09-03T02:30:26;100528.91;;;14.21;75.46
69214;BME280;56325;47.030;18.518;2022-09-03T02:33:02;100533.41;;;14.19;75.37
69214;BME280;56325;47.030;18.518;2022-09-03T02:35:36;100531.97;;;14.38;74.67
69214;BME280;56325;47.030;18.518;2022-09-03T02:38:12;100527.59;;;14.31;74.37
69214;BME280;56325;47.030;18.518;2022-09-03T02:40:48;100531.31;;;14.28;74.46
69214;BME280;56325;47.030;18.518;2022-09-03T02:43:28;100535.50;;;14.38;74.20
69214;BME280;56325;47.030;18.518;2022-09-03T02:46:09;100538.66;;;14.61;72.91
69214;BME280;56325;47.030;18.518;2022-09-03T02:48:47;100530.66;;;14.63;72.46
69214;BME280;56325;47.030;18.518;2022-09-03T02:51:21;100522.25;;;14.57;72.00
69214;BME280;56325;47.030;18.518;2022-09-03T02:53:56;100531.31;;;14.28;73.12
69214;BME280;56325;47.030;18.518;2022-09-03T02:56:30;100535.31;;;14.13;73.66
69214;BME280;56325;47.030;18.518;2022-09-03T02:59:07;100536.16;;;14.19;73.25
69214;BME280;56325;47.030;18.518;2022-09-03T03:01:41;100534.34;;;14.16;73.11
69214;BME280;56325;47.030;18.518;2022-09-03T03:04:20;100536.94;;;14.19;72.93
69214;BME280;56325;47.030;18.518;2022-09-03T03:06:55;100538.72;;;14.07;73.48
69214;BME280;56325;47.030;18.518;2022-09-03T03:09:29;100548.00;;;14.19;73.08
69214;BME280;56325;47.030;18.518;2022-09-03T03:12:04;100546.03;;;14.49;71.77
69214;BME280;56325;47.030;18.518;2022-09-03T03:14:39;100541.16;;;14.44;71.52
69214;BME280;56325;47.030;18.518;2022-09-03T03:17:13;100537.97;;;14.22;72.44
69214;BME280;56325;47.030;18.518;2022-09-03T03:19:49;100540.16;;;14.03;73.17
69214;BME280;56325;47.030;18.518;2022-09-03T03:22:23;100538.81;;;13.98;73.27
69214;BME280;56325;47.030;18.518;2022-09-03T03:24:57;100534.06;;;13.84;73.69
69214;BME280;56325;47.030;18.518;2022-09-03T03:27:31;100538.81;;;13.84;73.81
69214;BME280;56325;47.030;18.518;2022-09-03T03:30:07;100543.09;;;13.99;73.16
69214;BME280;56325;47.030;18.518;2022-09-03T03:32:41;100546.06;;;13.96;73.30
69214;BME280;56325;47.030;18.518;2022-09-03T03:35:17;100548.81;;;13.96;73.23
69214;BME280;56325;47.030;18.518;2022-09-03T03:37:51;100548.25;;;14.06;73.03
69214;BME280;56325;47.030;18.518;2022-09-03T03:40:26;100552.28;;;14.20;72.00
69214;BME280;56325;47.030;18.518;2022-09-03T03:43:00;100555.06;;;14.20;71.82
69214;BME280;56325;47.030;18.518;2022-09-03T03:45:35;100556.69;;;14.27;71.05
69214;BME280;56325;47.030;18.518;2022-09-03T03:48:09;100557.72;;;14.29;70.84
69214;BME280;56325;47.030;18.518;2022-09-03T03:50:44;100558.47;;;14.15;71.24
69214;BME280;56325;47.030;18.518;2022-09-03T03:53:19;100566.78;;;14.15;70.95
69214;BME280;56325;47.030;18.518;2022-09-03T03:55:54;100572.37;;;14.06;71.32
69214;BME280;56325;47.030;18.518;2022-09-03T03:58:31;100566.75;;;13.86;72.23
69214;BME280;56325;47.030;18.518;2022-09-03T04:01:07;100572.34;;;13.76;72.99
69214;BME280;56325;47.030;18.518;2022-09-03T04:03:42;100563.94;;;13.71;72.92
69214;BME280;56325;47.030;18.518;2022-09-03T04:06:19;100567.91;;;13.55;73.72
69214;BME280;56325;47.030;18.518;2022-09-03T04:08:53;100563.91;;;13.56;74.16
69214;BME280;56325;47.030;18.518;2022-09-03T04:11:28;100573.06;;;13.62;74.40
69214;BME280;56325;47.030;18.518;2022-09-03T04:14:02;100568.06;;;13.52;74.83
69214;BME280;56325;47.030;18.518;2022-09-03T04:16:36;100580.34;;;13.51;74.83
69214;BME280;56325;47.030;18.518;2022-09-03T04:19:11;100583.22;;;13.32;75.39
69214;BME280;56325;47.030;18.518;2022-09-03T04:21:47;100579.66;;;13.41;75.18
69214;BME280;56325;47.030;18.518;2022-09-03T04:24:21;100571.25;;;13.59;74.76
69214;BME280;56325;47.030;18.518;2022-09-03T04:26:55;100588.53;;;13.45;75.28
69214;BME280;56325;47.030;18.518;2022-09-03T04:29:30;100586.06;;;13.47;75.44
69214;BME280;56325;47.030;18.518;2022-09-03T04:32:04;100590.19;;;13.52;75.20
69214;BME280;56325;47.030;18.518;2022-09-03T04:34:56;100591.72;;;13.53;75.32
69214;BME280;56325;47.030;18.518;2022-09-03T04:37:32;100591.00;;;13.43;75.90
69214;BME280;56325;47.030;18.518;2022-09-03T04:40:07;100594.66;;;13.49;75.92
69214;BME280;56325;47.030;18.518;2022-09-03T04:42:41;100591.19;;;13.63;75.77
69214;BME280;56325;47.030;18.518;2022-09-03T04:45:16;100592.16;;;13.75;75.47
69214;BME280;56325;47.030;18.518;2022-09-03T04:47:58;100578.19;;;13.93;74.88
69214;BME280;56325;47.030;18.518;2022-09-03T04:50:32;100584.88;;;14.01;74.73
69214;BME280;56325;47.030;18.518;2022-09-03T04:53:08;100589.47;;;14.19;74.28
69214;BME280;56325;47.030;18.518;2022-09-03T04:55:43;100593.69;;;14.29;73.98
69214;BME280;56325;47.030;18.518;2022-09-03T04:58:17;100600.13;;;15.15;85.49
69214;BME280;56325;47.030;18.518;2022-09-03T05:00:53;100583.78;;;16.18;84.20
69214;BME280;56325;47.030;18.518;2022-09-03T05:03:29;100586.81;;;15.74;73.88
69214;BME280;56325;47.030;18.518;2022-09-03T05:06:04;100591.00;;;15.29;72.79
69214;BME280;56325;47.030;18.518;2022-09-03T05:08:40;100590.28;;;14.64;74.38
69214;BME280;56325;47.030;18.518;2022-09-03T05:11:16;100590.50;;;14.46;75.73
69214;BME280;56325;47.030;18.518;2022-09-03T05:13:52;100592.44;;;14.16;77.37
69214;BME280;56325;47.030;18.518;2022-09-03T05:16:28;100591.41;;;14.28;77.34
69214;BME280;56325;47.030;18.518;2022-09-03T05:19:03;100596.06;;;14.22;77.89
69214;BME280;56325;47.030;18.518;2022-09-03T05:21:39;100600.28;;;13.78;79.73
69214;BME280;56325;47.030;18.518;2022-09-03T05:24:16;100597.03;;;13.80;80.11
69214;BME280;56325;47.030;18.518;2022-09-03T05:26:50;100592.13;;;13.99;79.58
69214;BME280;56325;47.030;18.518;2022-09-03T05:29:24;100595.00;;;14.19;78.86
69214;BME280;56325;47.030;18.518;2022-09-03T05:31:59;100597.03;;;14.33;78.66
69214;BME280;56325;47.030;18.518;2022-09-03T05:34:33;100588.53;;;14.37;79.02
69214;BME280;56325;47.030;18.518;2022-09-03T05:37:07;100587.06;;;14.51;78.86
69214;BME280;56325;47.030;18.518;2022-09-03T05:39:43;100585.47;;;14.79;78.14
69214;BME280;56325;47.030;18.518;2022-09-03T05:42:17;100578.97;;;14.97;77.82
69214;BME280;56325;47.030;18.518;2022-09-03T05:44:51;100582.00;;;15.34;78.80
69214;BME280;56325;47.030;18.518;2022-09-03T05:47:26;100587.75;;;16.37;83.81
69214;BME280;56325;47.030;18.518;2022-09-03T05:50:01;100589.69;;;16.05;76.53
69214;BME280;56325;47.030;18.518;2022-09-03T05:52:35;100584.25;;;15.91;76.39
69214;BME280;56325;47.030;18.518;2022-09-03T05:55:11;100588.31;;;16.42;81.74
69214;BME280;56325;47.030;18.518;2022-09-03T05:57:50;100589.22;;;16.90;80.75
69214;BME280;56325;47.030;18.518;2022-09-03T06:00:25;100591.41;;;17.12;79.16
69214;BME280;56325;47.030;18.518;2022-09-03T06:03:00;100590.78;;;17.40;77.40
69214;BME280;56325;47.030;18.518;2022-09-03T06:05:34;100590.69;;;17.65;76.30
69214;BME280;56325;47.030;18.518;2022-09-03T06:08:08;100582.00;;;17.52;75.83
69214;BME280;56325;47.030;18.518;2022-09-03T06:10:45;100585.81;;;17.60;74.89
69214;BME280;56325;47.030;18.518;2022-09-03T06:13:20;100593.91;;;17.58;75.01
69214;BME280;56325;47.030;18.518;2022-09-03T06:15:55;100597.53;;;17.76;74.94
69214;BME280;56325;47.030;18.518;2022-09-03T06:18:30;100587.66;;;17.69;72.85
69214;BME280;56325;47.030;18.518;2022-09-03T06:21:06;100599.44;;;17.53;72.29
69214;BME280;56325;47.030;18.518;2022-09-03T06:23:40;100577.09;;;17.36;73.40
69214;BME280;56325;47.030;18.518;2022-09-03T06:26:19;100587.66;;;17.21;73.81
69214;BME280;56325;47.030;18.518;2022-09-03T06:28:54;100578.22;;;17.07;74.24
69214;BME280;56325;47.030;18.518;2022-09-03T06:31:28;100581.62;;;16.59;76.14
69214;BME280;56325;47.030;18.518;2022-09-03T06:34:03;100584.19;;;16.63;75.90
69214;BME280;56325;47.030;18.518;2022-09-03T06:36:38;100581.28;;;16.78;74.96
69214;BME280;56325;47.030;18.518;2022-09-03T06:39:13;100573.78;;;16.84;75.01
69214;BME280;56325;47.030;18.518;2022-09-03T06:41:48;100579.97;;;17.04;73.90
69214;BME280;56325;47.030;18.518;2022-09-03T06:44:29;100574.06;;;16.91;74.79
69214;BME280;56325;47.030;18.518;2022-09-03T06:47:03;100574.09;;;17.40;75.16
69214;BME280;56325;47.030;18.518;2022-09-03T06:49:37;100569.88;;;17.55;76.29
69214;BME280;56325;47.030;18.518;2022-09-03T06:52:12;100570.81;;;17.41;72.51
69214;BME280;56325;47.030;18.518;2022-09-03T06:54:47;100569.56;;;17.42;73.92
69214;BME280;56325;47.030;18.518;2022-09-03T06:57:23;100566.47;;;17.34;73.68
69214;BME280;56325;47.030;18.518;2022-09-03T06:59:57;100571.59;;;17.47;74.62
69214;BME280;56325;47.030;18.518;2022-09-03T07:02:31;100569.63;;;17.59;73.69
69214;BME280;56325;47.030;18.518;2022-09-03T07:05:07;100563.19;;;17.90;72.01
69214;BME280;56325;47.030;18.518;2022-09-03T07:07:41;100570.22;;;17.74;71.76
69214;BME280;56325;47.030;18.518;2022-09-03T07:10:17;100564.66;;;17.68;72.78
69214;BME280;56325;47.030;18.518;2022-09-03T07:12:54;100570.53;;;17.87;72.28
69214;BME280;56325;47.030;18.518;2022-09-03T07:15:29;100574.84;;;17.88;72.04
69214;BME280;56325;47.030;18.518;2022-09-03T07:18:04;100570.31;;;18.02;71.52
69214;BME280;56325;47.030;18.518;2022-09-03T07:20:38;100573.88;;;18.08;71.52
69214;BME280;56325;47.030;18.518;2022-09-03T07:23:12;100581.22;;;18.11;73.17
69214;BME280;56325;47.030;18.518;2022-09-03T07:25:52;100579.94;;;18.23;72.33
69214;BME280;56325;47.030;18.518;2022-09-03T07:28:29;100584.53;;;18.32;72.52
69214;BME280;56325;47.030;18.518;2022-09-03T07:31:07;100581.72;;;18.21;70.20
69214;BME280;56325;47.030;18.518;2022-09-03T07:33:42;100586.03;;;18.22;72.74
69214;BME280;56325;47.030;18.518;2022-09-03T07:36:16;100591.06;;;18.01;72.35
69214;BME280;56325;47.030;18.518;2022-09-03T07:38:54;100594.66;;;18.35;71.29
69214;BME280;56325;47.030;18.518;2022-09-03T07:41:29;100588.34;;;18.46;70.77
69214;BME280;56325;47.030;18.518;2022-09-03T07:44:07;100582.31;;;18.64;71.95
69214;BME280;56325;47.030;18.518;2022-09-03T07:46:42;100593.19;;;18.67;69.23
69214;BME280;56325;47.030;18.518;2022-09-03T07:49:18;100586.84;;;18.78;68.65
69214;BME280;56325;47.030;18.518;2022-09-03T07:51:54;100579.78;;;18.66;69.37
69214;BME280;56325;47.030;18.518;2022-09-03T07:54:28;100589.66;;;18.84;70.15
69214;BME280;56325;47.030;18.518;2022-09-03T07:57:03;100580.75;;;18.96;68.12
69214;BME280;56325;47.030;18.518;2022-09-03T07:59:39;100585.25;;;19.27;67.19
69214;BME280;56325;47.030;18.518;2022-09-03T08:02:14;100580.41;;;19.33;67.60
69214;BME280;56325;47.030;18.518;2022-09-03T08:04:48;100576.84;;;19.44;65.81
69214;BME280;56325;47.030;18.518;2022-09-03T08:07:22;100577.56;;;19.61;65.46
69214;BME280;56325;47.030;18.518;2022-09-03T08:09:59;100574.97;;;19.75;64.85
69214;BME280;56325;47.030;18.518;2022-09-03T08:12:33;100580.56;;;19.75;64.15
69214;BME280;56325;47.030;18.518;2022-09-03T08:15:09;100574.97;;;19.75;64.48
69214;BME280;56325;47.030;18.518;2022-09-03T08:17:44;100579.47;;;19.89;63.74
69214;BME280;56325;47.030;18.518;2022-09-03T08:20:19;100576.56;;;20.06;63.66
69214;BME280;56325;47.030;18.518;2022-09-03T08:22:59;100586.06;;;20.27;64.48
69214;BME280;56325;47.030;18.518;2022-09-03T08:25:34;100580.84;;;20.53;62.75
69214;BME280;56325;47.030;18.518;2022-09-03T08:28:09;100586.63;;;20.61;62.06
69214;BME280;56325;47.030;18.518;2022-09-03T08:30:44;100585.50;;;20.75;63.67
69214;BME280;56325;47.030;18.518;2022-09-03T08:33:19;100589.16;;;20.89;60.77
69214;BME280;56325;47.030;18.518;2022-09-03T08:36:11;100583.28;;;20.92;61.64
69214;BME280;56325;47.030;18.518;2022-09-03T08:38:46;100581.03;;;21.15;59.25
69214;BME280;56325;47.030;18.518;2022-09-03T08:41:27;100578.69;;;21.19;59.85
69214;BME280;56325;47.030;18.518;2022-09-03T08:44:17;100577.62;;;21.28;57.45
69214;BME280;56325;47.030;18.518;2022-09-03T08:46:59;100584.81;;;21.18;57.60
69214;BME280;56325;47.030;18.518;2022-09-03T08:49:41;100583.91;;;21.34;58.19
69214;BME280;56325;47.030;18.518;2022-09-03T08:52:25;100576.59;;;21.50;57.51
69214;BME280;56325;47.030;18.518;2022-09-03T08:55:13;100570.88;;;21.61;56.96
69214;BME280;56325;47.030;18.518;2022-09-03T08:57:52;100570.03;;;21.85;58.45
69214;BME280;56325;47.030;18.518;2022-09-03T09:00:38;100565.78;;;21.97;55.75
69214;BME280;56325;47.030;18.518;2022-09-03T09:03:32;100567.03;;;22.02;55.66
69214;BME280;56325;47.030;18.518;2022-09-03T09:06:11;100569.97;;;21.90;56.17
69214;BME280;56325;47.030;18.518;2022-09-03T09:08:56;100568.06;;;21.80;54.43
69214;BME280;56325;47.030;18.518;2022-09-03T09:11:44;100561.25;;;21.94;53.93
69214;BME280;56325;47.030;18.518;2022-09-03T09:14:24;100559.28;;;21.70;55.69
69214;BME280;56325;47.030;18.518;2022-09-03T09:17:09;100565.66;;;22.08;56.52
69214;BME280;56325;47.030;18.518;2022-09-03T09:20:00;100554.31;;;22.19;56.93
69214;BME280;56325;47.030;18.518;2022-09-03T09:22:39;100555.94;;;22.28;55.07
69214;BME280;56325;47.030;18.518;2022-09-03T09:25:21;100550.56;;;22.30;54.90
69214;BME280;56325;47.030;18.518;2022-09-03T09:27:59;100548.03;;;22.45;54.25
69214;BME280;56325;47.030;18.518;2022-09-03T09:30:34;100540.97;;;22.26;53.41
69214;BME280;56325;47.030;18.518;2022-09-03T09:33:08;100543.94;;;22.46;54.22
69214;BME280;56325;47.030;18.518;2022-09-03T09:35:45;100536.78;;;22.77;54.16
69214;BME280;56325;47.030;18.518;2022-09-03T09:38:27;100534.22;;;22.93;54.95
69214;BME280;56325;47.030;18.518;2022-09-03T09:41:09;100537.06;;;23.19;52.69
69214;BME280;56325;47.030;18.518;2022-09-03T09:43:44;100535.53;;;23.31;52.50
69214;BME280;56325;47.030;18.518;2022-09-03T09:46:22;100541.91;;;23.32;50.79
69214;BME280;56325;47.030;18.518;2022-09-03T09:48:57;100543.75;;;23.16;53.14
69214;BME280;56325;47.030;18.518;2022-09-03T09:51:33;100544.59;;;23.24;50.82
69214;BME280;56325;47.030;18.518;2022-09-03T09:54:13;100544.16;;;23.33;52.52
69214;BME280;56325;47.030;18.518;2022-09-03T09:56:58;100544.59;;;23.37;50.97
69214;BME280;56325;47.030;18.518;2022-09-03T09:59:34;100540.50;;;23.38;52.25
69214;BME280;56325;47.030;18.518;2022-09-03T10:02:12;100545.87;;;23.63;52.35
69214;BME280;56325;47.030;18.518;2022-09-03T10:04:57;100546.34;;;23.87;51.32
69214;BME280;56325;47.030;18.518;2022-09-03T10:07:35;100536.41;;;23.86;50.81
69214;BME280;56325;47.030;18.518;2022-09-03T10:10:15;100540.22;;;24.10;51.86
69214;BME280;56325;47.030;18.518;2022-09-03T10:12:55;100532.06;;;23.99;50.46
69214;BME280;56325;47.030;18.518;2022-09-03T10:15:39;100537.81;;;23.93;48.51
69214;BME280;56325;47.030;18.518;2022-09-03T10:18:19;100539.91;;;23.66;49.02
69214;BME280;56325;47.030;18.518;2022-09-03T10:21:05;100534.16;;;23.85;47.56
69214;BME280;56325;47.030;18.518;2022-09-03T10:23:50;100537.31;;;23.68;48.23
69214;BME280;56325;47.030;18.518;2022-09-03T10:26:31;100533.09;;;23.75;48.55
69214;BME280;56325;47.030;18.518;2022-09-03T10:29:06;100534.44;;;23.61;47.30
69214;BME280;56325;47.030;18.518;2022-09-03T10:31:50;100519.16;;;23.82;46.51
69214;BME280;56325;47.030;18.518;2022-09-03T10:34:31;100522.75;;;24.04;45.20
69214;BME280;56325;47.030;18.518;2022-09-03T10:37:18;100518.78;;;24.20;43.33
69214;BME280;56325;47.030;18.518;2022-09-03T10:43:13;100519.53;;;24.41;46.08
69214;BME280;56325;47.030;18.518;2022-09-03T10:45:55;100514.59;;;24.55;44.78
69214;BME280;56325;47.030;18.518;2022-09-03T10:48:47;100504.75;;;24.41;44.21
69214;BME280;56325;47.030;18.518;2022-09-03T10:51:27;100516.59;;;24.47;43.63
69214;BME280;56325;47.030;18.518;2022-09-03T10:54:21;100520.44;;;24.57;43.44
69214;BME280;56325;47.030;18.518;2022-09-03T10:57:09;100514.13;;;24.64;43.01
69214;BME280;56325;47.030;18.518;2022-09-03T10:59:59;100514.25;;;24.59;43.48
69214;BME280;56325;47.030;18.518;2022-09-03T11:02:54;100508.41;;;24.77;44.07
69214;BME280;56325;47.030;18.518;2022-09-03T11:05:34;100514.13;;;24.64;42.26
69214;BME280;56325;47.030;18.518;2022-09-03T11:08:14;100513.62;;;24.73;42.98
69214;BME280;56325;47.030;18.518;2022-09-03T11:10:53;100520.16;;;24.68;43.38
69214;BME280;56325;47.030;18.518;2022-09-03T11:13:32;100520.59;;;24.80;43.69
69214;BME280;56325;47.030;18.518;2022-09-03T11:16:14;100510.50;;;25.05;42.07
69214;BME280;56325;47.030;18.518;2022-09-03T11:18:54;100513.38;;;24.92;40.21
69214;BME280;56325;47.030;18.518;2022-09-03T11:21:32;100513.25;;;24.98;40.69
69214;BME280;56325;47.030;18.518;2022-09-03T11:24:12;100514.47;;;25.17;41.09
69214;BME280;56325;47.030;18.518;2022-09-03T11:26:51;100505.56;;;25.34;40.08
69214;BME280;56325;47.030;18.518;2022-09-03T11:29:34;100505.63;;;25.49;39.45
69214;BME280;56325;47.030;18.518;2022-09-03T11:32:15;100504.66;;;25.03;38.74
69214;BME280;56325;47.030;18.518;2022-09-03T11:34:52;100504.56;;;25.24;40.01
69214;BME280;56325;47.030;18.518;2022-09-03T11:37:28;100505.91;;;24.95;39.74
69214;BME280;56325;47.030;18.518;2022-09-03T11:40:07;100513.62;;;24.73;39.47
69214;BME280;56325;47.030;18.518;2022-09-03T11:42:46;100502.81;;;25.06;41.29
69214;BME280;56325;47.030;18.518;2022-09-03T11:45:33;100501.50;;;25.14;38.84
69214;BME280;56325;47.030;18.518;2022-09-03T11:48:30;100490.94;;;25.43;38.85
69214;BME280;56325;47.030;18.518;2022-09-03T11:51:19;100500.12;;;25.80;38.16
69214;BME280;56325;47.030;18.518;2022-09-03T11:53:55;100510.66;;;25.43;39.12
69214;BME280;56325;47.030;18.518;2022-09-03T11:56:32;100499.62;;;25.53;39.51
69214;BME280;56325;47.030;18.518;2022-09-03T11:59:17;100495.56;;;25.26;39.15
69214;BME280;56325;47.030;18.518;2022-09-03T12:01:59;100500.06;;;24.93;41.18
69214;BME280;56325;47.030;18.518;2022-09-03T12:04:42;100491.44;;;24.91;40.94
69214;BME280;56325;47.030;18.518;2022-09-03T12:07:32;100501.16;;;24.90;40.23
69214;BME280;56325;47.030;18.518;2022-09-03T12:10:26;100497.34;;;25.44;40.83
69214;BME280;56325;47.030;18.518;2022-09-03T12:13:20;100508.41;;;25.86;39.68
69214;BME280;56325;47.030;18.518;2022-09-03T12:16:22;100496.03;;;26.27;38.38
69214;BME280;56325;47.030;18.518;2022-09-03T12:19:09;100504.50;;;26.19;38.03
69214;BME280;56325;47.030;18.518;2022-09-03T12:21:47;100505.66;;;26.31;39.99
69214;BME280;56325;47.030;18.518;2022-09-03T12:24:25;100506.59;;;26.34;36.75
69214;BME280;56325;47.030;18.518;2022-09-03T12:27:15;100496.06;;;26.42;39.06
69214;BME280;56325;47.030;18.518;2022-09-03T12:29:54;100501.34;;;26.61;37.93
69214;BME280;56325;47.030;18.518;2022-09-03T12:32:34;100500.97;;;26.64;38.51
69214;BME280;56325;47.030;18.518;2022-09-03T12:35:13;100491.31;;;26.98;37.12
69214;BME280;56325;47.030;18.518;2022-09-03T12:38:07;100492.31;;;26.55;36.58
69214;BME280;56325;47.030;18.518;2022-09-03T12:40:47;100489.69;;;26.34;39.52
69214;BME280;56325;47.030;18.518;2022-09-03T12:43:50;100489.69;;;26.41;37.94
69214;BME280;56325;47.030;18.518;2022-09-03T12:46:26;100481.56;;;26.84;38.14
69214;BME280;56325;47.030;18.518;2022-09-03T12:49:05;100478.75;;;26.76;36.11
69214;BME280;56325;47.030;18.518;2022-09-03T12:52:04;100480.16;;;27.15;36.89
69214;BME280;56325;47.030;18.518;2022-09-03T12:54:47;100483.03;;;26.92;37.17
69214;BME280;56325;47.030;18.518;2022-09-03T12:57:25;100481.53;;;26.99;37.89
69214;BME280;56325;47.030;18.518;2022-09-03T13:00:06;100474.47;;;27.30;36.53
69214;BME280;56325;47.030;18.518;2022-09-03T13:02:45;100471.41;;;27.43;35.47
69214;BME280;56325;47.030;18.518;2022-09-03T13:05:27;100469.59;;;27.23;35.79
69214;BME280;56325;47.030;18.518;2022-09-03T13:08:06;100456.94;;;27.32;37.01
69214;BME280;56325;47.030;18.518;2022-09-03T13:10:44;100460.53;;;27.32;35.13
69214;BME280;56325;47.030;18.518;2022-09-03T13:13:23;100461.38;;;26.95;35.26
69214;BME280;56325;47.030;18.518;2022-09-03T13:16:25;100460.22;;;27.13;36.65
69214;BME280;56325;47.030;18.518;2022-09-03T13:19:06;100458.28;;;26.45;37.21
69214;BME280;56325;47.030;18.518;2022-09-03T13:21:49;100459.00;;;25.85;40.99
69214;BME280;56325;47.030;18.518;2022-09-03T13:25:06;100457.87;;;26.10;38.78
69214;BME280;56325;47.030;18.518;2022-09-03T13:27:45;100449.97;;;26.77;37.47
69214;BME280;56325;47.030;18.518;2022-09-03T13:30:31;100445.56;;;27.07;35.90
69214;BME280;56325;47.030;18.518;2022-09-03T13:33:14;100438.72;;;26.55;36.79
69214;BME280;56325;47.030;18.518;2022-09-03T13:35:58;100447.06;;;25.56;37.57
69214;BME280;56325;47.030;18.518;2022-09-03T13:38:37;100442.12;;;26.00;37.92
69214;BME280;56325;47.030;18.518;2022-09-03T13:41:16;100442.47;;;25.89;39.02
69214;BME280;56325;47.030;18.518;2022-09-03T13:43:57;100447.37;;;25.37;39.33
69214;BME280;56325;47.030;18.518;2022-09-03T13:46:43;100433.06;;;25.20;40.38
69214;BME280;56325;47.030;18.518;2022-09-03T13:49:31;100428.91;;;25.05;40.00
69214;BME280;56325;47.030;18.518;2022-09-03T13:52:30;100430.16;;;24.97;39.31
69214;BME280;56325;47.030;18.518;2022-09-03T13:55:09;100432.69;;;25.23;40.25